Time;durP1;ratioP1;P1;durP2;ratioP2;P2;SDS_P1;SDS_P2;PMS_P1;PMS_P2;Temp;Humidity;BMP_temperature;BMP_pressure;BME280_temperature;BME280_humidity;BME280_pressure;Samples;Min_cycle;Max_cycle;Signal;HPM_P1;HPM_P2
2022/06/14 00:03:16;;;;;;;0.10;0.10;;;;;;;;;;4889008;29;20087;-90
2022/06/14 00:05:42;;;;;;;0.10;0.10;;;;;;;;;;4871287;29;20094;-90
2022/06/14 00:08:08;;;;;;;0.10;0.10;;;;;;;;;;4877617;29;20496;-90
2022/06/14 00:10:34;;;;;;;0.10;0.10;;;;;;;;;;4901856;29;20063;-89
2022/06/14 00:13:00;;;;;;;0.10;0.10;;;;;;;;;;4886254;29;20040;-90
2022/06/14 00:15:26;;;;;;;0.10;0.10;;;;;;;;;;4901960;29;20048;-90
2022/06/14 00:17:52;;;;;;;0.10;0.10;;;;;;;;;;4886473;29;20036;-91
2022/06/14 00:20:18;;;;;;;0.10;0.10;;;;;;;;;;4902014;29;20115;-89
2022/06/14 00:22:44;;;;;;;0.10;0.10;;;;;;;;;;4886139;29;20080;-91
2022/06/14 00:25:19;;;;;;;0.10;0.10;;;;;;;;;;4886246;29;20051;-90
2022/06/14 00:27:45;;;;;;;0.10;0.10;;;;;;;;;;4885936;29;20079;-90
2022/06/14 00:30:11;;;;;;;0.10;0.10;;;;;;;;;;4885214;29;20040;-89
2022/06/14 00:32:37;;;;;;;0.10;0.10;;;;;;;;;;4885915;29;20063;-89
2022/06/14 00:35:03;;;;;;;0.10;0.10;;;;;;;;;;4885776;29;20063;-89
2022/06/14 00:37:29;;;;;;;0.10;0.10;;;;;;;;;;4901400;29;20040;-89
2022/06/14 00:39:55;;;;;;;0.10;0.10;;;;;;;;;;4885654;29;20125;-89
2022/06/14 00:42:22;;;;;;;0.10;0.10;;;;;;;;;;4885891;29;20036;-90
2022/06/14 00:45:07;;;;;;;0.10;0.10;;;;;;;;;;4901224;29;20048;-89
2022/06/14 00:47:34;;;;;;;0.10;0.10;;;;;;;;;;4885394;29;20036;-90
2022/06/14 00:50:00;;;;;;;0.10;0.10;;;;;;;;;;4885391;29;20044;-90
2022/06/14 00:52:37;;;;;;;0.10;0.10;;;;;;;;;;4885714;29;20044;-88
2022/06/14 00:55:05;;;;;;;0.20;0.20;;;;;;;;;;4885518;29;20492;-89
2022/06/14 00:57:37;;;;;;;0.10;0.10;;;;;;;;;;4885627;29;20456;-88
2022/06/14 01:00:12;;;;;;;0.10;0.10;;;;;;;;;;4900950;29;20040;-89
2022/06/14 01:02:40;;;;;;;0.10;0.10;;;;;;;;;;4885520;29;20047;-88
2022/06/14 01:05:08;;;;;;;0.10;0.10;;;;;;;;;;4885226;29;20122;-89
2022/06/14 01:07:36;;;;;;;0.10;0.10;;;;;;;;;;4900707;29;20102;-89
2022/06/14 01:10:03;;;;;;;0.10;0.10;;;;;;;;;;4900863;29;20048;-89
2022/06/14 01:12:30;;;;;;;0.10;0.10;;;;;;;;;;4884855;29;20048;-89
2022/06/14 01:15:15;;;;;;;0.10;0.10;;;;;;;;;;4900760;29;20123;-88
2022/06/14 01:17:43;;;;;;;0.10;0.10;;;;;;;;;;4885193;29;20370;-89
2022/06/14 01:20:10;;;;;;;0.10;0.10;;;;;;;;;;4885336;29;20036;-89
2022/06/14 01:22:36;;;;;;;0.10;0.10;;;;;;;;;;4884921;29;20040;-89
2022/06/14 01:25:04;;;;;;;0.10;0.10;;;;;;;;;;4885206;29;20074;-89
2022/06/14 01:27:31;;;;;;;0.10;0.10;;;;;;;;;;4884756;29;20054;-88
2022/06/14 01:30:08;;;;;;;0.10;0.10;;;;;;;;;;4884764;29;20104;-89
2022/06/14 01:32:35;;;;;;;0.10;0.10;;;;;;;;;;4900669;29;20449;-90
2022/06/14 01:35:02;;;;;;;0.10;0.10;;;;;;;;;;4884871;29;20051;-89
2022/06/14 01:37:28;;;;;;;0.10;0.10;;;;;;;;;;4884648;29;20040;-90
2022/06/14 01:39:54;;;;;;;0.10;0.10;;;;;;;;;;4884344;29;20048;-90
2022/06/14 01:42:24;;;;;;;0.10;0.10;;;;;;;;;;4884434;29;20104;-89
2022/06/14 01:45:12;;;;;;;0.10;0.10;;;;;;;;;;4884808;29;20127;-89
2022/06/14 01:47:48;;;;;;;0.10;0.10;;;;;;;;;;4884485;29;20049;-88
2022/06/14 01:53:07;;;;;;;0.10;0.10;;;;;;;;;;4900011;29;20048;-90
2022/06/14 01:55:39;;;;;;;0.10;0.10;;;;;;;;;;4884486;29;20479;-89
2022/06/14 01:58:11;;;;;;;0.10;0.10;;;;;;;;;;4900251;29;20463;-89
2022/06/14 02:00:38;;;;;;;0.10;0.10;;;;;;;;;;4900182;29;20048;-88
2022/06/14 02:06:16;;;;;;;0.10;0.10;;;;;;;;;;4899714;29;20055;-89
2022/06/14 02:09:06;;;;;;;0.10;0.10;;;;;;;;;;4874507;29;20520;-90
2022/06/14 02:11:32;;;;;;;0.10;0.10;;;;;;;;;;4881271;29;20103;-89
2022/06/14 02:14:04;;;;;;;0.10;0.10;;;;;;;;;;4883999;29;20050;-89
2022/06/14 02:16:32;;;;;;;0.10;0.10;;;;;;;;;;4883937;29;20123;-88
2022/06/14 02:19:07;;;;;;;0.10;0.10;;;;;;;;;;4884026;29;20163;-90
2022/06/14 02:21:34;;;;;;;0.10;0.10;;;;;;;;;;4899555;29;20534;-90
2022/06/14 02:24:09;;;;;;;0.10;0.10;;;;;;;;;;4883839;29;20087;-89
2022/06/14 02:26:36;;;;;;;0.10;0.10;;;;;;;;;;4899584;29;20052;-89
2022/06/14 02:29:31;;;;;;;0.10;0.10;;;;;;;;;;4883770;29;20492;-89
2022/06/14 02:32:06;;;;;;;0.10;0.10;;;;;;;;;;4883681;29;20055;-88
2022/06/14 02:34:33;;;;;;;0.10;0.10;;;;;;;;;;4883657;29;20126;-88
2022/06/14 02:37:05;;;;;;;0.15;0.15;;;;;;;;;;4883730;29;20040;-88
2022/06/14 02:39:35;;;;;;;0.10;0.10;;;;;;;;;;4883606;29;20055;-87
2022/06/14 02:42:13;;;;;;;0.10;0.10;;;;;;;;;;4899248;29;20047;-91
2022/06/14 02:44:40;;;;;;;0.10;0.10;;;;;;;;;;4883387;29;20559;-88
2022/06/14 02:47:25;;;;;;;0.10;0.10;;;;;;;;;;4883520;29;20047;-88
2022/06/14 02:50:04;;;;;;;0.10;0.10;;;;;;;;;;4899038;29;20050;-88
2022/06/14 02:52:35;;;;;;;0.10;0.10;;;;;;;;;;4882750;29;20040;-87
2022/06/14 02:55:03;;;;;;;0.10;0.10;;;;;;;;;;4883613;29;20051;-88
2022/06/14 02:57:29;;;;;;;0.10;0.10;;;;;;;;;;4898920;29;20040;-87
2022/06/14 03:00:04;;;;;;;0.10;0.10;;;;;;;;;;4883630;29;20051;-87
2022/06/14 03:02:47;;;;;;;0.10;0.10;;;;;;;;;;4898808;29;20516;-88
2022/06/14 03:05:13;;;;;;;;;;;;;;;;;;4883747;29;20036;-87
2022/06/14 03:07:40;;;;;;;0.10;0.10;;;;;;;;;;4898616;29;19923;-87
2022/06/14 03:10:07;;;;;;;0.10;0.10;;;;;;;;;;4867980;29;20075;-89
2022/06/14 03:12:37;;;;;;;0.10;0.10;;;;;;;;;;4867798;29;20132;-88
2022/06/14 03:15:12;;;;;;;0.10;0.10;;;;;;;;;;4898918;29;20048;-88
2022/06/14 03:17:45;;;;;;;0.10;0.10;;;;;;;;;;4867928;29;20087;-89
2022/06/14 03:20:24;;;;;;;0.10;0.10;;;;;;;;;;4868276;29;20392;-89
2022/06/14 03:22:56;;;;;;;0.20;0.20;;;;;;;;;;4883711;29;20040;-87
2022/06/14 03:25:40;;;;;;;0.10;0.10;;;;;;;;;;4899150;29;20080;-87
2022/06/14 03:28:18;;;;;;;0.20;0.20;;;;;;;;;;4883434;29;20067;-87
2022/06/14 03:30:58;;;;;;;0.10;0.10;;;;;;;;;;4898581;29;20115;-87
2022/06/14 03:33:26;;;;;;;0.10;0.10;;;;;;;;;;4883287;29;20044;-87
2022/06/14 03:35:52;;;;;;;0.20;0.20;;;;;;;;;;4883190;29;20489;-87
2022/06/14 03:38:21;;;;;;;0.10;0.10;;;;;;;;;;4867882;29;20408;-86
2022/06/14 03:40:47;;;;;;;0.10;0.10;;;;;;;;;;4867688;29;20050;-86
2022/06/14 03:43:13;;;;;;;0.10;0.10;;;;;;;;;;4883113;29;20051;-87
2022/06/14 03:45:48;;;;;;;0.10;0.10;;;;;;;;;;4867992;29;20044;-86
2022/06/14 03:48:14;;;;;;;0.10;0.10;;;;;;;;;;4883610;29;20492;-86
2022/06/14 03:50:45;;;;;;;0.10;0.10;;;;;;;;;;4867685;29;20040;-87
2022/06/14 03:53:37;;;;;;;0.10;0.10;;;;;;;;;;4883052;29;20036;-87
2022/06/14 03:56:03;;;;;;;0.10;0.10;;;;;;;;;;4880642;29;20212;-87
2022/06/14 03:59:03;;;;;;;0.10;0.10;;;;;;;;;;4898574;29;20046;-87
2022/06/14 04:01:29;;;;;;;0.10;0.10;;;;;;;;;;4882916;29;20578;-87
2022/06/14 04:04:04;;;;;;;0.10;0.10;;;;;;;;;;4885039;29;20135;-87
2022/06/14 04:06:49;;;;;;;0.10;0.10;;;;;;;;;;4901883;29;20047;-87
2022/06/14 04:09:32;;;;;;;0.10;0.10;;;;;;;;;;4917193;29;20056;-88
2022/06/14 04:11:58;;;;;;;0.50;0.50;;;;;;;;;;4886247;29;20156;-87
2022/06/14 04:14:30;;;;;;;0.10;0.10;;;;;;;;;;4917286;29;20135;-87
2022/06/14 04:17:15;;;;;;;0.10;0.10;;;;;;;;;;4917429;29;20044;-87
2022/06/14 04:19:45;;;;;;;0.10;0.10;;;;;;;;;;4901830;29;20032;-87
2022/06/14 04:22:11;;;;;;;0.10;0.10;;;;;;;;;;4917423;29;20373;-87
2022/06/14 04:24:42;;;;;;;0.10;0.10;;;;;;;;;;4901642;29;20088;-88
2022/06/14 04:27:11;;;;;;;0.10;0.10;;;;;;;;;;4901700;29;20048;-86
2022/06/14 04:29:39;;;;;;;0.10;0.10;;;;;;;;;;4917147;29;20052;-86
2022/06/14 04:32:17;;;;;;;0.10;0.10;;;;;;;;;;4885956;29;20048;-86
2022/06/14 04:34:51;;;;;;;0.10;0.10;;;;;;;;;;4901324;29;20488;-87
2022/06/14 04:37:28;;;;;;;0.10;0.10;;;;;;;;;;4901359;29;20044;-88
2022/06/14 04:39:58;;;;;;;0.10;0.10;;;;;;;;;;4901543;29;20040;-87
2022/06/14 04:42:26;;;;;;;0.10;0.10;;;;;;;;;;4901465;29;20052;-87
2022/06/14 04:45:12;;;;;;;0.10;0.10;;;;;;;;;;4901455;29;20126;-87
2022/06/14 04:47:43;;;;;;;0.10;0.10;;;;;;;;;;4901088;29;20076;-87
2022/06/14 04:50:11;;;;;;;0.10;0.10;;;;;;;;;;4885750;29;20437;-88
2022/06/14 04:52:38;;;;;;;0.10;0.10;;;;;;;;;;4885601;29;20079;-87
2022/06/14 04:55:13;;;;;;;0.10;0.10;;;;;;;;;;4901422;29;20047;-87
2022/06/14 04:57:50;;;;;;;0.10;0.10;;;;;;;;;;4901227;29;20049;-88
2022/06/14 05:00:20;;;;;;;0.10;0.10;;;;;;;;;;4901069;29;20119;-88
2022/06/14 05:02:53;;;;;;;0.10;0.10;;;;;;;;;;4901014;29;20079;-87
2022/06/14 05:05:30;;;;;;;0.10;0.10;;;;;;;;;;4901286;29;20488;-87
2022/06/14 05:07:57;;;;;;;0.10;0.10;;;;;;;;;;4916254;29;20501;-87
2022/06/14 05:10:25;;;;;;;0.10;0.10;;;;;;;;;;4900785;29;20082;-87
2022/06/14 05:12:54;;;;;;;0.10;0.10;;;;;;;;;;4900919;29;20104;-87
2022/06/14 05:15:25;;;;;;;0.20;0.20;;;;;;;;;;4915551;29;20042;-87
2022/06/14 05:17:53;;;;;;;0.10;0.10;;;;;;;;;;4916320;29;20496;-87
2022/06/14 05:20:24;;;;;;;0.10;0.10;;;;;;;;;;4885039;29;20044;-86
2022/06/14 05:22:56;;;;;;;0.10;0.10;;;;;;;;;;4900576;29;20123;-87
2022/06/14 05:25:22;;;;;;;0.10;0.10;;;;;;;;;;4900815;29;20086;-88
2022/06/14 05:27:50;;;;;;;0.10;0.10;;;;;;;;;;4884917;29;20466;-87
2022/06/14 05:30:16;;;;;;;0.10;0.10;;;;;;;;;;4884827;29;20131;-88
2022/06/14 05:33:00;;;;;;;0.10;0.10;;;;;;;;;;4900280;29;20147;-89
2022/06/14 05:35:40;;;;;;;0.10;0.10;;;;;;;;;;4900266;29;20040;-87
2022/06/14 05:38:10;;;;;;;0.10;0.10;;;;;;;;;;4900650;29;20048;-91
2022/06/14 05:40:45;;;;;;;0.10;0.10;;;;;;;;;;4885066;29;20044;-91
2022/06/14 05:43:15;;;;;;;0.10;0.10;;;;;;;;;;4900679;29;20114;-91
2022/06/14 05:45:43;;;;;;;0.10;0.10;;;;;;;;;;4885247;29;20448;-92
2022/06/14 05:48:10;;;;;;;0.47;0.25;;;;;;;;;;4900680;29;20047;-91
2022/06/14 05:50:40;;;;;;;0.10;0.10;;;;;;;;;;4900232;29;20086;-92
2022/06/14 05:53:13;;;;;;;0.10;0.10;;;;;;;;;;4884713;29;20040;-91
2022/06/14 05:55:41;;;;;;;0.10;0.10;;;;;;;;;;4884856;29;20083;-92
2022/06/14 05:58:07;;;;;;;0.20;0.20;;;;;;;;;;4884641;29;20040;-91
2022/06/14 06:00:46;;;;;;;0.10;0.10;;;;;;;;;;4900428;29;20127;-91
2022/06/14 06:03:14;;;;;;;0.10;0.10;;;;;;;;;;4915988;29;20220;-93
2022/06/14 06:05:42;;;;;;;0.10;0.10;;;;;;;;;;4900276;29;20055;-92
2022/06/14 06:08:10;;;;;;;0.10;0.10;;;;;;;;;;4884445;29;20228;-93
2022/06/14 06:10:37;;;;;;;0.10;0.10;;;;;;;;;;4884910;29;20044;-92
2022/06/14 06:13:07;;;;;;;0.10;0.10;;;;;;;;;;4884036;29;20036;-92
2022/06/14 06:15:34;;;;;;;0.10;0.10;;;;;;;;;;4884115;29;20036;-91
2022/06/14 06:18:01;;;;;;;0.10;0.10;;;;;;;;;;4883581;29;20095;-91
2022/06/14 06:20:37;;;;;;;0.10;0.10;;;;;;;;;;4884245;29;20506;-90
2022/06/14 06:23:16;;;;;;;0.10;0.10;;;;;;;;;;4884062;29;20485;-92
2022/06/14 06:25:46;;;;;;;0.10;0.10;;;;;;;;;;4897805;29;20060;-91
2022/06/14 06:28:18;;;;;;;0.10;0.10;;;;;;;;;;4883707;29;20043;-91
2022/06/14 06:30:47;;;;;;;0.10;0.10;;;;;;;;;;4868143;29;20052;-92
2022/06/14 06:33:13;;;;;;;0.10;0.10;;;;;;;;;;4876198;29;20100;-87
2022/06/14 06:35:43;;;;;;;0.10;0.10;;;;;;;;;;4899224;29;20509;-88
2022/06/14 06:38:29;;;;;;;0.10;0.10;;;;;;;;;;4883492;29;20055;-88
2022/06/14 06:43:43;;;;;;;0.10;0.10;;;;;;;;;;4897361;29;20052;-89
2022/06/14 06:46:10;;;;;;;0.10;0.10;;;;;;;;;;4899059;29;20040;-88
2022/06/14 06:48:39;;;;;;;0.10;0.10;;;;;;;;;;4884076;29;20067;-92
2022/06/14 06:51:05;;;;;;;0.10;0.10;;;;;;;;;;4867943;29;20515;-90
2022/06/14 06:53:47;;;;;;;0.10;0.10;;;;;;;;;;4883638;29;20083;-87
2022/06/14 06:56:14;;;;;;;0.10;0.10;;;;;;;;;;4901458;29;20404;-89
2022/06/14 06:58:44;;;;;;;0.10;0.10;;;;;;;;;;4867533;29;20056;-89
2022/06/14 07:01:15;;;;;;;0.10;0.10;;;;;;;;;;4867773;29;20055;-89
2022/06/14 07:03:48;;;;;;;0.10;0.10;;;;;;;;;;4883829;29;20364;-89
2022/06/14 07:06:28;;;;;;;0.55;0.55;;;;;;;;;;4868280;29;20052;-89
2022/06/14 07:08:56;;;;;;;0.10;0.10;;;;;;;;;;4911517;29;20060;-89
2022/06/14 07:11:23;;;;;;;0.10;0.10;;;;;;;;;;4930260;29;20092;-89
2022/06/14 07:13:53;;;;;;;0.10;0.10;;;;;;;;;;4883395;29;20208;-90
2022/06/14 07:16:22;;;;;;;0.30;0.30;;;;;;;;;;4883656;29;20087;-90
2022/06/14 07:18:48;;;;;;;0.25;0.25;;;;;;;;;;4883440;29;20040;-89
2022/06/14 07:21:15;;;;;;;0.20;0.20;;;;;;;;;;4930352;29;20404;-89
2022/06/14 07:23:45;;;;;;;0.20;0.20;;;;;;;;;;4883299;29;20044;-89
2022/06/14 07:26:20;;;;;;;1.85;0.22;;;;;;;;;;4883314;29;20199;-89
2022/06/14 07:28:52;;;;;;;0.20;0.20;;;;;;;;;;4898789;29;20400;-89
2022/06/14 07:31:21;;;;;;;0.10;0.10;;;;;;;;;;4930305;29;20055;-89
2022/06/14 07:33:47;;;;;;;0.10;0.10;;;;;;;;;;4898709;29;20036;-89
2022/06/14 07:36:20;;;;;;;0.10;0.10;;;;;;;;;;4898757;29;20040;-90
2022/06/14 07:38:51;;;;;;;0.10;0.10;;;;;;;;;;4900878;29;20036;-90
2022/06/14 07:41:29;;;;;;;0.10;0.10;;;;;;;;;;4934020;29;20047;-89
2022/06/14 07:44:07;;;;;;;0.10;0.10;;;;;;;;;;4934039;29;20044;-89
2022/06/14 07:46:36;;;;;;;0.10;0.10;;;;;;;;;;4902513;29;20530;-89
2022/06/14 07:49:04;;;;;;;0.20;0.20;;;;;;;;;;4903452;29;20108;-89
2022/06/14 07:51:39;;;;;;;0.10;0.10;;;;;;;;;;4902524;29;20044;-90
2022/06/14 07:54:16;;;;;;;0.30;0.30;;;;;;;;;;4886758;29;20036;-90
2022/06/14 07:57:02;;;;;;;0.20;0.20;;;;;;;;;;4886744;29;20048;-90
2022/06/14 07:59:33;;;;;;;0.20;0.20;;;;;;;;;;4901894;29;20044;-90
2022/06/14 08:02:11;;;;;;;0.10;0.10;;;;;;;;;;4902317;29;20048;-90
2022/06/14 08:04:45;;;;;;;0.10;0.10;;;;;;;;;;4901760;29;20494;-90
2022/06/14 08:07:15;;;;;;;0.20;0.20;;;;;;;;;;4886386;29;20050;-90
2022/06/14 08:09:47;;;;;;;0.20;0.20;;;;;;;;;;4870788;29;20144;-90
2022/06/14 08:12:16;;;;;;;0.10;0.10;;;;;;;;;;4901794;29;20044;-90
2022/06/14 08:14:48;;;;;;;0.15;0.15;;;;;;;;;;4901736;29;20036;-90
2022/06/14 08:17:20;;;;;;;0.10;0.10;;;;;;;;;;4886491;29;20135;-90
2022/06/14 08:19:47;;;;;;;0.25;0.25;;;;;;;;;;4886980;29;20059;-90
2022/06/14 08:22:15;;;;;;;0.10;0.10;;;;;;;;;;4870721;29;20070;-89
2022/06/14 08:24:44;;;;;;;0.20;0.20;;;;;;;;;;4901822;29;20051;-90
2022/06/14 08:27:12;;;;;;;0.10;0.10;;;;;;;;;;4886108;29;20568;-90
2022/06/14 08:29:45;;;;;;;0.10;0.10;;;;;;;;;;4886130;29;20048;-89
2022/06/14 08:32:11;;;;;;;0.20;0.20;;;;;;;;;;4885942;29;20519;-91
2022/06/14 08:34:40;;;;;;;0.20;0.20;;;;;;;;;;4901442;29;20051;-89
2022/06/14 08:37:21;;;;;;;0.20;0.20;;;;;;;;;;4886057;29;20123;-92
2022/06/14 08:39:48;;;;;;;0.17;0.17;;;;;;;;;;4886491;29;20047;-91
2022/06/14 08:42:23;;;;;;;0.20;0.20;;;;;;;;;;4885981;29;20048;-92
2022/06/14 08:44:57;;;;;;;0.10;0.10;;;;;;;;;;4886016;29;20365;-91
2022/06/14 08:47:44;;;;;;;0.20;0.20;;;;;;;;;;4871213;29;20137;-89
2022/06/14 08:50:29;;;;;;;0.20;0.20;;;;;;;;;;4884796;29;20044;-88
2022/06/14 08:53:18;;;;;;;0.20;0.20;;;;;;;;;;4870676;29;20048;-92
2022/06/14 08:56:03;;;;;;;0.20;0.20;;;;;;;;;;4867338;29;20127;-89
2022/06/14 08:58:35;;;;;;;0.20;0.20;;;;;;;;;;4885841;29;20046;-90
2022/06/14 09:01:19;;;;;;;0.10;0.10;;;;;;;;;;4901039;29;20135;-90
2022/06/14 09:04:04;;;;;;;0.10;0.10;;;;;;;;;;4869909;29;20044;-90
2022/06/14 09:06:49;;;;;;;0.20;0.20;;;;;;;;;;4907947;29;20048;-90
2022/06/14 09:09:30;;;;;;;0.20;0.20;;;;;;;;;;4926232;29;20063;-91
2022/06/14 09:12:02;;;;;;;0.20;0.20;;;;;;;;;;4910792;29;20059;-90
2022/06/14 09:14:28;;;;;;;;;;;;;;;;;;4905510;29;20040;-90
2022/06/14 09:17:17;;;;;;;0.50;0.50;;;;;;;;;;4916648;29;19979;-90
2022/06/14 09:19:43;;;;;;;0.10;0.10;;;;;;;;;;4900762;29;20416;-90
2022/06/14 09:22:28;;;;;;;0.20;0.20;;;;;;;;;;4916728;29;20046;-89
2022/06/14 09:24:57;;;;;;;0.30;0.20;;;;;;;;;;4916471;29;20131;-89
2022/06/14 09:27:32;;;;;;;0.20;0.20;;;;;;;;;;4885389;29;20079;-89
2022/06/14 09:29:59;;;;;;;0.10;0.10;;;;;;;;;;4901169;29;20051;-89
2022/06/14 09:32:31;;;;;;;0.10;0.10;;;;;;;;;;4900178;29;20055;-90
2022/06/14 09:35:01;;;;;;;0.20;0.20;;;;;;;;;;4884758;29;20553;-91
2022/06/14 09:37:49;;;;;;;0.20;0.20;;;;;;;;;;4900608;29;20052;-90
2022/06/14 09:40:34;;;;;;;0.20;0.20;;;;;;;;;;4901149;29;20051;-91
2022/06/14 09:43:17;;;;;;;0.20;0.20;;;;;;;;;;4915941;29;20055;-90
2022/06/14 09:46:00;;;;;;;0.20;0.20;;;;;;;;;;4885110;29;20075;-96
2022/06/14 09:48:32;;;;;;;0.10;0.10;;;;;;;;;;4884588;29;20492;-88
2022/06/14 09:51:17;;;;;;;0.20;0.20;;;;;;;;;;4915700;29;20072;-89
2022/06/14 09:53:43;;;;;;;0.10;0.10;;;;;;;;;;4899565;29;20040;-88
2022/06/14 09:56:09;;;;;;;0.10;0.10;;;;;;;;;;4915981;29;20051;-89
2022/06/14 09:58:38;;;;;;;0.20;0.20;;;;;;;;;;4915556;29;20040;-88
2022/06/14 10:01:07;;;;;;;0.20;0.20;;;;;;;;;;4915632;29;20048;-88
2022/06/14 10:03:46;;;;;;;0.10;0.10;;;;;;;;;;4899648;29;20048;-90
2022/06/14 10:06:12;;;;;;;0.20;0.20;;;;;;;;;;4887002;29;20088;-91
2022/06/14 10:08:59;;;;;;;0.10;0.10;;;;;;;;;;4899841;29;20048;-91
2022/06/14 10:11:37;;;;;;;0.28;0.25;;;;;;;;;;4899877;29;20061;-91
2022/06/14 10:14:18;;;;;;;0.10;0.10;;;;;;;;;;4899633;29;20040;-91
2022/06/14 10:16:53;;;;;;;0.20;0.20;;;;;;;;;;4869376;29;20040;-91
2022/06/14 10:19:28;;;;;;;0.15;0.15;;;;;;;;;;4884179;29;20044;-90
2022/06/14 10:22:07;;;;;;;0.20;0.20;;;;;;;;;;4899608;29;20048;-91
2022/06/14 10:24:47;;;;;;;0.10;0.10;;;;;;;;;;4899569;29;20514;-92
2022/06/14 10:30:09;;;;;;;0.20;0.20;;;;;;;;;;4915429;29;20048;-90
2022/06/14 10:32:45;;;;;;;0.10;0.10;;;;;;;;;;4905542;29;20503;-90
2022/06/14 10:35:29;;;;;;;0.10;0.10;;;;;;;;;;4896532;29;20135;-90
2022/06/14 10:38:04;;;;;;;0.10;0.10;;;;;;;;;;4880564;29;20095;-90
2022/06/14 10:40:49;;;;;;;0.38;0.38;;;;;;;;;;4896480;29;20056;-89
2022/06/14 10:43:15;;;;;;;0.10;0.10;;;;;;;;;;4895825;29;20096;-90
2022/06/14 10:45:42;;;;;;;0.10;0.10;;;;;;;;;;4896107;29;20398;-90
2022/06/14 10:48:27;;;;;;;0.20;0.20;;;;;;;;;;4911445;29;20040;-90
2022/06/14 10:51:02;;;;;;;0.15;0.15;;;;;;;;;;4912109;29;20135;-93
2022/06/14 10:53:45;;;;;;;0.10;0.10;;;;;;;;;;4896696;29;20063;-94
2022/06/14 10:56:22;;;;;;;0.20;0.20;;;;;;;;;;4912347;29;20485;-94
2022/06/14 10:58:58;;;;;;;0.10;0.10;;;;;;;;;;4896922;29;20048;-93
2022/06/14 11:01:27;;;;;;;0.10;0.10;;;;;;;;;;4896399;29;20087;-94
2022/06/14 11:04:09;;;;;;;0.10;0.10;;;;;;;;;;4896407;29;20044;-93
2022/06/14 11:06:58;;;;;;;0.10;0.10;;;;;;;;;;4897960;29;20468;-94
2022/06/14 11:09:43;;;;;;;0.20;0.20;;;;;;;;;;4869536;29;20052;-94
2022/06/14 11:12:28;;;;;;;0.10;0.10;;;;;;;;;;4883801;29;20377;-93
2022/06/14 11:15:09;;;;;;;0.10;0.10;;;;;;;;;;4888135;29;20193;-93
2022/06/14 11:17:55;;;;;;;0.20;0.20;;;;;;;;;;4888114;29;20087;-94
2022/06/14 11:20:33;;;;;;;0.20;0.20;;;;;;;;;;4888596;29;20093;-94
2022/06/14 11:23:00;;;;;;;0.10;0.10;;;;;;;;;;4887978;29;20044;-94
2022/06/14 11:25:30;;;;;;;0.10;0.10;;;;;;;;;;4872684;29;20376;-93
2022/06/14 11:28:07;;;;;;;0.20;0.20;;;;;;;;;;4888340;29;20130;-94
2022/06/14 11:30:42;;;;;;;0.20;0.20;;;;;;;;;;4888939;29;20147;-94
2022/06/14 11:33:08;;;;;;;0.20;0.20;;;;;;;;;;4872225;29;20044;-93
2022/06/14 11:35:38;;;;;;;0.40;0.40;;;;;;;;;;4887645;29;20514;-93
2022/06/14 11:38:11;;;;;;;0.10;0.10;;;;;;;;;;4887649;29;20040;-93
2022/06/14 11:40:39;;;;;;;0.10;0.10;;;;;;;;;;4887734;29;20044;-94
2022/06/14 11:43:19;;;;;;;0.10;0.10;;;;;;;;;;4872375;29;20388;-93
2022/06/14 11:46:04;;;;;;;0.10;0.10;;;;;;;;;;4872261;29;20055;-94
2022/06/14 11:48:34;;;;;;;0.10;0.10;;;;;;;;;;4887371;29;20044;-93
2022/06/14 11:51:13;;;;;;;0.20;0.20;;;;;;;;;;4887469;29;20044;-94
2022/06/14 11:53:58;;;;;;;0.20;0.20;;;;;;;;;;4872235;29;20040;-93
2022/06/14 11:56:24;;;;;;;0.10;0.10;;;;;;;;;;4887812;29;20040;-93
2022/06/14 11:59:07;;;;;;;0.10;0.10;;;;;;;;;;4903893;29;20083;-92
2022/06/14 12:01:52;;;;;;;0.20;0.20;;;;;;;;;;4871815;29;20559;-93
2022/06/14 12:04:33;;;;;;;0.10;0.10;;;;;;;;;;4871553;29;20488;-93
2022/06/14 12:07:03;;;;;;;0.10;0.10;;;;;;;;;;4886991;29;20055;-94
2022/06/14 12:09:49;;;;;;;0.10;0.10;;;;;;;;;;4902455;29;20044;-90
2022/06/14 12:12:23;;;;;;;0.20;0.20;;;;;;;;;;4917834;29;20044;-90
2022/06/14 12:15:09;;;;;;;0.10;0.10;;;;;;;;;;4902229;29;20040;-91
2022/06/14 12:17:44;;;;;;;0.10;0.10;;;;;;;;;;4917772;29;20522;-90
2022/06/14 12:20:20;;;;;;;0.10;0.10;;;;;;;;;;4886383;29;20044;-90
2022/06/14 12:23:06;;;;;;;0.10;0.10;;;;;;;;;;4901941;29;20032;-91
2022/06/14 12:28:51;;;;;;;0.10;0.10;;;;;;;;;;4933260;29;20063;-91
2022/06/14 12:31:23;;;;;;;0.10;0.10;;;;;;;;;;4886522;29;20131;-91
2022/06/14 12:33:51;;;;;;;0.10;0.10;;;;;;;;;;4917431;29;20048;-90
2022/06/14 12:36:31;;;;;;;0.20;0.20;;;;;;;;;;4902548;29;20040;-90
2022/06/14 12:38:57;;;;;;;0.10;0.10;;;;;;;;;;4932995;29;20100;-91
2022/06/14 12:41:31;;;;;;;0.10;0.10;;;;;;;;;;4901594;29;20055;-91
2022/06/14 12:44:15;;;;;;;0.10;0.10;;;;;;;;;;4917356;29;20047;-91
2022/06/14 12:46:47;;;;;;;0.10;0.10;;;;;;;;;;4917014;29;20040;-91
2022/06/14 12:49:13;;;;;;;0.10;0.10;;;;;;;;;;4933668;29;20488;-93
2022/06/14 12:51:42;;;;;;;0.10;0.10;;;;;;;;;;4917979;29;20067;-93
2022/06/14 12:54:11;;;;;;;0.10;0.10;;;;;;;;;;4917467;29;20040;-92
2022/06/14 12:56:47;;;;;;;0.10;0.10;;;;;;;;;;4930863;29;20047;-93
2022/06/14 12:59:31;;;;;;;0.10;0.10;;;;;;;;;;4916972;29;20043;-93
2022/06/14 13:02:07;;;;;;;0.10;0.10;;;;;;;;;;4903293;29;20556;-95
2022/06/14 13:04:35;;;;;;;0.10;0.10;;;;;;;;;;4885503;29;20072;-93
2022/06/14 13:07:11;;;;;;;0.10;0.10;;;;;;;;;;4874553;29;20087;-93
2022/06/14 13:12:45;;;;;;;0.10;0.10;;;;;;;;;;2972787;23;21715;-96
2022/06/14 13:15:26;;;;;;;0.10;0.10;;;;;;;;;;4900703;29;20059;-95
2022/06/14 13:18:02;;;;;;;0.10;0.10;;;;;;;;;;4903184;29;20051;-95
2022/06/14 13:20:49;;;;;;;0.15;0.15;;;;;;;;;;4886232;29;20059;-95
2022/06/14 13:23:25;;;;;;;0.10;0.10;;;;;;;;;;4888077;29;20138;-96
2022/06/14 13:25:51;;;;;;;0.10;0.10;;;;;;;;;;4875983;29;20041;-96
2022/06/14 13:28:32;;;;;;;0.10;0.10;;;;;;;;;;4871465;29;20052;-96
2022/06/14 13:31:19;;;;;;;0.10;0.10;;;;;;;;;;4872943;29;20083;-96
2022/06/14 13:34:14;;;;;;;0.20;0.20;;;;;;;;;;4886109;29;20084;-96
2022/06/14 13:36:48;;;;;;;0.10;0.10;;;;;;;;;;4886295;29;20053;-96
2022/06/14 13:39:27;;;;;;;0.10;0.10;;;;;;;;;;4869350;29;20040;-96
2022/06/14 13:42:01;;;;;;;0.10;0.10;;;;;;;;;;4869731;29;20403;-96
2022/06/14 13:44:30;;;;;;;0.10;0.10;;;;;;;;;;4869318;29;20112;-96
2022/06/14 13:47:35;;;;;;;;;;;;;;;;;;;;;
2022/06/14 14:06:21;;;;;;;0.20;0.20;;;;;;;;;;6005500;23;20598;-96
2022/06/14 14:17:21;;;;;;;0.10;0.10;;;;;;;;;;5008988;23;20071;-96
2022/06/14 15:05:20;;;;;;;0.10;0.10;;;;;;;;;;1685535;23;20105;-90
2022/06/14 15:13:04;;;;;;;0.10;0.10;;;;;;;;;;1632985;23;20218;-95
2022/06/14 17:25:02;;;;;;;;;;;;;;;;;;4915195;23;20053;-96
2022/06/14 17:31:29;;;;;;;0.17;0.17;;;;;;;;;;4884054;29;20572;-96
2022/06/14 17:34:29;;;;;;;;;;;;;;;;;;;;;
2022/06/14 17:37:36;;;;;;;0.10;0.10;;;;;;;;;;4874689;29;20052;-96
2022/06/14 17:40:13;;;;;;;0.10;0.10;;;;;;;;;;4880463;29;20049;-96
2022/06/14 17:42:41;;;;;;;0.10;0.10;;;;;;;;;;4838968;29;20105;-96
2022/06/14 17:45:14;;;;;;;0.10;0.10;;;;;;;;;;4840206;29;20127;-96
2022/06/14 19:59:45;;;;;;;0.10;0.10;;;;;;;;;;5902449;23;20029;-94
2022/06/14 20:02:12;;;;;;;0.10;0.10;;;;;;;;;;4869063;29;20492;-96
2022/06/14 20:05:10;;;;;;;0.10;0.10;;;;;;;;;;4870636;29;20127;-96
2022/06/14 20:07:50;;;;;;;0.10;0.10;;;;;;;;;;4860758;29;20096;-96
2022/06/14 20:10:17;;;;;;;0.10;0.10;;;;;;;;;;4885104;29;20052;-95
2022/06/14 20:12:47;;;;;;;0.10;0.10;;;;;;;;;;4869579;29;20056;-95
2022/06/14 20:15:19;;;;;;;0.10;0.10;;;;;;;;;;4869937;29;20117;-95
2022/06/14 20:17:51;;;;;;;0.10;0.10;;;;;;;;;;4869770;29;20104;-95
2022/06/14 20:20:17;;;;;;;;;;;;;;;;;;4869738;29;20040;-94
2022/06/14 20:22:46;;;;;;;0.10;0.10;;;;;;;;;;4884543;29;19923;-96
2022/06/14 20:27:56;;;;;;;0.10;0.10;;;;;;;;;;5326819;23;20080;-96
2022/06/14 20:30:23;;;;;;;0.17;0.17;;;;;;;;;;4835838;29;20053;-94
2022/06/14 20:32:50;;;;;;;0.10;0.10;;;;;;;;;;4836263;29;20045;-95
2022/06/14 20:35:16;;;;;;;0.10;0.10;;;;;;;;;;4851243;29;20084;-96
2022/06/14 20:37:49;;;;;;;0.10;0.10;;;;;;;;;;4850763;29;20051;-95
2022/06/14 20:40:16;;;;;;;0.10;0.10;;;;;;;;;;4850643;29;20041;-96
2022/06/14 20:42:43;;;;;;;0.10;0.10;;;;;;;;;;4851107;29;20365;-95
2022/06/14 20:45:11;;;;;;;0.10;0.10;;;;;;;;;;4849935;29;20365;-95
2022/06/14 20:47:38;;;;;;;0.10;0.10;;;;;;;;;;4850551;29;20041;-95
2022/06/14 20:50:05;;;;;;;0.10;0.10;;;;;;;;;;4850603;29;20045;-95
2022/06/14 20:52:31;;;;;;;0.10;0.10;;;;;;;;;;4850261;29;20045;-94
2022/06/14 20:54:58;;;;;;;0.10;0.10;;;;;;;;;;4850829;29;20045;-94
2022/06/14 20:57:25;;;;;;;0.10;0.10;;;;;;;;;;4850590;29;20051;-95
2022/06/14 20:59:52;;;;;;;0.10;0.10;;;;;;;;;;4850454;29;20099;-95
2022/06/14 21:02:18;;;;;;;0.10;0.10;;;;;;;;;;4849929;29;20056;-95
2022/06/14 21:04:44;;;;;;;0.10;0.10;;;;;;;;;;4850167;29;20564;-94
2022/06/14 21:07:11;;;;;;;0.10;0.10;;;;;;;;;;4850225;29;20191;-95
2022/06/14 21:09:57;;;;;;;0.10;0.10;;;;;;;;;;4850356;29;20049;-96
2022/06/14 21:12:49;;;;;;;0.10;0.10;;;;;;;;;;4850426;29;20045;-96
2022/06/14 21:15:26;;;;;;;0.10;0.10;;;;;;;;;;4850789;29;20056;-96
2022/06/14 21:17:55;;;;;;;0.10;0.10;;;;;;;;;;4865931;29;20057;-96
2022/06/14 21:20:22;;;;;;;0.20;0.20;;;;;;;;;;4849613;29;20048;-96
2022/06/14 21:22:48;;;;;;;0.10;0.10;;;;;;;;;;4849199;29;20077;-96
2022/06/14 21:25:16;;;;;;;0.10;0.10;;;;;;;;;;4849698;29;20109;-96